Pagrindinis puslapis
METAR-TAF:

METAR-TAF

Oro uostai :

Paraguaná, Venesuela

platuma: 11-47N, ilguma: 070-09W, Aukštis: 23 m

Dabartinis oras

Ataskaita buvo paskelbta 2 valandos ir 20 minutes, ne 22:00 UTC
Vėjas 14 kt iš Rytų
Temperatūra
Slėgis
Matomumas 10 km arba daugiau
Mažai debesys ne aukštis 1300 ft

METAR: SVJC 222200Z 2300/2400 09014KT 9999 FEW013 TX32/19Z TN25/08Z TEMPO 2300/2304 06015G18KT 9999 SCT013 SCT090

Laikas: 20:20 (00:20 UTC)

Prognozė

Ataskaita buvo paskelbta 8 valandos ir 20 minutes, ne 16:00 UTC
Prognozė galioja nuo 22 metu 18 UTC su 23 metu 18 UTC
Vėjas 11 kt iš Rytų
Matomumas 10 km arba daugiau
Mažai debesys ne aukštis 1300 ft
Laikinai
nuo 22 metu 18 UTC su 22 metu 22 UTC
Vėjas 15 kt iš Rytų
Matomumas: 9000 m
Su prošvaistėmis ne aukštis 1300 ft
dulksna

TAF: SVJC 221600Z 2218/2318 09011KT 9999 FEW013 TX32/19Z TN23/09Z TEMPO 2218/2222 08015KT 9000 DZ BKN013

Orai ataskaitas ir orų prognozės (METAR, TAF).

turimą stotys yra geltonos ir raudonos taškus žemėlapyje.

Perkelti pele per norėdami pamatyti stoties vardą.

Tada spustelėkite, norėdami matyti oro stebėjimo ir prognozės.

Norėdami pakeisti žemėlapį: spustelėkite ant žalios mygtukų su juodo kryžiaus žemyn,; žalią mygtuką su brūkšneliu, jei norite nutolinti; arba žalių rodyklių gretimoms žemėlapius.


METAR-TAF: